sensor_id;sensor_type;location;lat;lon;timestamp;pressure;altitude;pressure_sealevel;temperature;humidity
25156;BME280;21913;52.456;13.634;2023-01-29T00:04:33;101626.41;;;10.46;56.71
25156;BME280;21913;52.456;13.634;2023-01-29T00:09:35;101620.34;;;10.46;56.79
25156;BME280;21913;52.456;13.634;2023-01-29T00:14:37;101624.66;;;10.45;56.59
25156;BME280;21913;52.456;13.634;2023-01-29T00:19:38;101616.03;;;10.46;56.79
25156;BME280;21913;52.456;13.634;2023-01-29T00:24:40;101606.53;;;10.45;56.76
25156;BME280;21913;52.456;13.634;2023-01-29T00:29:41;101591.00;;;10.45;56.68
25156;BME280;21913;52.456;13.634;2023-01-29T00:34:43;101593.59;;;10.45;56.68
25156;BME280;21913;52.456;13.634;2023-01-29T00:39:44;101600.53;;;10.46;56.72
25156;BME280;21913;52.456;13.634;2023-01-29T00:44:48;101593.59;;;10.45;56.75
25156;BME280;21913;52.456;13.634;2023-01-29T00:49:52;101599.66;;;10.46;56.74
25156;BME280;21913;52.456;13.634;2023-01-29T00:54:58;101603.94;;;10.45;56.64
25156;BME280;21913;52.456;13.634;2023-01-29T01:00:00;101601.38;;;10.45;56.66
25156;BME280;21913;52.456;13.634;2023-01-29T01:05:03;101603.94;;;10.45;56.66
25156;BME280;21913;52.456;13.634;2023-01-29T01:10:06;101610.84;;;10.45;56.74
25156;BME280;21913;52.456;13.634;2023-01-29T01:15:08;101605.66;;;10.45;56.66
25156;BME280;21913;52.456;13.634;2023-01-29T01:20:12;101601.38;;;10.45;56.69
25156;BME280;21913;52.456;13.634;2023-01-29T01:25:14;101588.41;;;10.44;56.58
25156;BME280;21913;52.456;13.634;2023-01-29T01:30:15;101590.13;;;10.45;56.64
25156;BME280;21913;52.456;13.634;2023-01-29T01:35:18;101556.44;;;10.43;56.58
25156;BME280;21913;52.456;13.634;2023-01-29T01:40:21;101553.91;;;10.45;56.58
25156;BME280;21913;52.456;13.634;2023-01-29T01:45:33;101552.19;;;10.45;56.66
25156;BME280;21913;52.456;13.634;2023-01-29T01:55:45;101551.31;;;10.45;56.61
25156;BME280;21913;52.456;13.634;2023-01-29T02:00:48;101558.22;;;10.44;56.60
25156;BME280;21913;52.456;13.634;2023-01-29T02:05:52;101560.81;;;10.44;56.58
25156;BME280;21913;52.456;13.634;2023-01-29T02:10:56;101569.38;;;10.43;56.61
25156;BME280;21913;52.456;13.634;2023-01-29T02:15:58;101575.47;;;10.44;56.75
25156;BME280;21913;52.456;13.634;2023-01-29T02:26:43;101580.63;;;10.44;56.52
25156;BME280;21913;52.456;13.634;2023-01-29T02:32:19;101577.97;;;10.42;56.63
25156;BME280;21913;52.456;13.634;2023-01-29T02:37:28;101577.97;;;10.42;56.33
25156;BME280;21913;52.456;13.634;2023-01-29T02:42:47;101584.03;;;10.43;56.57
25156;BME280;21913;52.456;13.634;2023-01-29T02:47:58;101584.91;;;10.43;56.57
25156;BME280;21913;52.456;13.634;2023-01-29T02:53:14;101587.50;;;10.43;56.53
25156;BME280;21913;52.456;13.634;2023-01-29T02:58:29;101582.31;;;10.43;56.68
25156;BME280;21913;52.456;13.634;2023-01-29T03:03:52;101584.03;;;10.43;56.52
25156;BME280;21913;52.456;13.634;2023-01-29T03:09:01;101592.66;;;10.43;56.19
25156;BME280;21913;52.456;13.634;2023-01-29T03:14:14;101579.72;;;10.43;56.45
25156;BME280;21913;52.456;13.634;2023-01-29T03:19:30;101579.72;;;10.43;56.65
25156;BME280;21913;52.456;13.634;2023-01-29T03:24:46;101582.31;;;10.43;56.44
25156;BME280;21913;52.456;13.634;2023-01-29T03:29:50;101571.09;;;10.43;56.49
25156;BME280;21913;52.456;13.634;2023-01-29T03:35:01;101567.63;;;10.42;56.49
25156;BME280;21913;52.456;13.634;2023-01-29T03:40:07;101571.94;;;10.42;56.46
25156;BME280;21913;52.456;13.634;2023-01-29T03:45:35;101562.47;;;10.42;56.43
25156;BME280;21913;52.456;13.634;2023-01-29T03:50:57;101562.47;;;10.42;56.44
25156;BME280;21913;52.456;13.634;2023-01-29T04:01:53;101563.31;;;10.41;56.54
25156;BME280;21913;52.456;13.634;2023-01-29T04:07:03;101558.13;;;10.41;56.59
25156;BME280;21913;52.456;13.634;2023-01-29T04:12:10;101563.31;;;10.41;56.55
25156;BME280;21913;52.456;13.634;2023-01-29T04:17:21;101558.13;;;10.41;56.54
25156;BME280;21913;52.456;13.634;2023-01-29T04:22:35;101547.78;;;10.41;56.46
25156;BME280;21913;52.456;13.634;2023-01-29T04:28:05;101541.75;;;10.42;56.59
25156;BME280;21913;52.456;13.634;2023-01-29T04:34:37;101520.16;;;10.40;56.40
25156;BME280;21913;52.456;13.634;2023-01-29T04:39:44;101502.91;;;10.41;56.37
25156;BME280;21913;52.456;13.634;2023-01-29T04:45:35;101496.88;;;10.40;56.45
25156;BME280;21913;52.456;13.634;2023-01-29T04:50:50;101490.81;;;10.40;56.46
25156;BME280;21913;52.456;13.634;2023-01-29T05:01:10;101462.38;;;10.40;56.36
25156;BME280;21913;52.456;13.634;2023-01-29T05:06:14;101451.16;;;10.41;56.34
25156;BME280;21913;52.456;13.634;2023-01-29T05:11:17;101448.56;;;10.39;56.44
25156;BME280;21913;52.456;13.634;2023-01-29T05:16:26;101422.69;;;10.39;56.39
25156;BME280;21913;52.456;13.634;2023-01-29T05:21:31;101437.34;;;10.39;56.45
25156;BME280;21913;52.456;13.634;2023-01-29T05:26:33;101438.22;;;10.39;56.53
25156;BME280;21913;52.456;13.634;2023-01-29T05:31:35;101452.88;;;10.40;56.38
25156;BME280;21913;52.456;13.634;2023-01-29T05:36:36;101469.28;;;10.41;56.36
25156;BME280;21913;52.456;13.634;2023-01-29T05:41:38;101472.75;;;10.41;56.34
25156;BME280;21913;52.456;13.634;2023-01-29T05:46:40;101478.75;;;10.40;56.38
25156;BME280;21913;52.456;13.634;2023-01-29T05:51:41;101474.44;;;10.39;56.39
25156;BME280;21913;52.456;13.634;2023-01-29T05:56:43;101484.78;;;10.39;56.49
25156;BME280;21913;52.456;13.634;2023-01-29T06:01:45;101475.31;;;10.40;56.36
25156;BME280;21913;52.456;13.634;2023-01-29T06:06:46;101485.59;;;10.38;56.54
25156;BME280;21913;52.456;13.634;2023-01-29T06:11:48;101502.88;;;10.39;56.31
25156;BME280;21913;52.456;13.634;2023-01-29T06:16:49;101505.47;;;10.39;56.35
25156;BME280;21913;52.456;13.634;2023-01-29T06:21:51;101504.59;;;10.39;56.40
25156;BME280;21913;52.456;13.634;2023-01-29T06:26:53;101496.84;;;10.39;56.49
25156;BME280;21913;52.456;13.634;2023-01-29T06:31:54;101494.25;;;10.39;56.37
25156;BME280;21913;52.456;13.634;2023-01-29T06:36:56;101503.69;;;10.38;56.41
25156;BME280;21913;52.456;13.634;2023-01-29T06:41:57;101514.03;;;10.38;56.44
25156;BME280;21913;52.456;13.634;2023-01-29T06:46:59;101514.97;;;10.39;56.46
25156;BME280;21913;52.456;13.634;2023-01-29T06:52:00;101517.53;;;10.39;56.48
25156;BME280;21913;52.456;13.634;2023-01-29T06:57:02;101503.69;;;10.38;56.30
25156;BME280;21913;52.456;13.634;2023-01-29T07:02:04;101521.81;;;10.38;56.38
25156;BME280;21913;52.456;13.634;2023-01-29T07:07:06;101510.66;;;10.39;56.24
25156;BME280;21913;52.456;13.634;2023-01-29T07:12:09;101498.53;;;10.38;56.30
25156;BME280;21913;52.456;13.634;2023-01-29T07:17:11;101518.34;;;10.38;56.36
25156;BME280;21913;52.456;13.634;2023-01-29T07:22:12;101496.78;;;10.37;56.46
25156;BME280;21913;52.456;13.634;2023-01-29T07:27:14;101506.28;;;10.38;56.38
25156;BME280;21913;52.456;13.634;2023-01-29T07:32:15;101503.69;;;10.38;56.37
25156;BME280;21913;52.456;13.634;2023-01-29T07:37:17;101502.81;;;10.38;56.40
25156;BME280;21913;52.456;13.634;2023-01-29T07:42:19;101504.53;;;10.37;56.50
25156;BME280;21913;52.456;13.634;2023-01-29T07:47:20;101491.59;;;10.37;56.35
25156;BME280;21913;52.456;13.634;2023-01-29T07:52:22;101500.25;;;10.38;56.42
25156;BME280;21913;52.456;13.634;2023-01-29T07:57:24;101488.16;;;10.37;56.37
25156;BME280;21913;52.456;13.634;2023-01-29T08:02:25;101475.25;;;10.38;56.45
25156;BME280;21913;52.456;13.634;2023-01-29T08:07:27;101465.72;;;10.37;56.38
25156;BME280;21913;52.456;13.634;2023-01-29T08:12:29;101482.97;;;10.37;56.50
25156;BME280;21913;52.456;13.634;2023-01-29T08:17:30;101472.63;;;10.37;56.38
25156;BME280;21913;52.456;13.634;2023-01-29T08:22:32;101476.09;;;10.37;56.52
25156;BME280;21913;52.456;13.634;2023-01-29T08:27:33;101456.25;;;10.38;56.50
25156;BME280;21913;52.456;13.634;2023-01-29T08:32:35;101454.50;;;10.37;56.43
25156;BME280;21913;52.456;13.634;2023-01-29T08:37:37;101447.63;;;10.37;56.58
25156;BME280;21913;52.456;13.634;2023-01-29T08:42:38;101454.50;;;10.37;56.51
25156;BME280;21913;52.456;13.634;2023-01-29T08:47:47;101439.03;;;10.38;56.44
25156;BME280;21913;52.456;13.634;2023-01-29T08:52:49;101418.28;;;10.37;56.59
25156;BME280;21913;52.456;13.634;2023-01-29T08:57:50;101421.75;;;10.37;56.42
25156;BME280;21913;52.456;13.634;2023-01-29T09:02:52;101440.72;;;10.36;56.60
25156;BME280;21913;52.456;13.634;2023-01-29T09:07:56;101428.66;;;10.37;56.65
25156;BME280;21913;52.456;13.634;2023-01-29T09:12:59;101423.47;;;10.37;56.50
25156;BME280;21913;52.456;13.634;2023-01-29T09:18:04;101418.28;;;10.37;56.54
25156;BME280;21913;52.456;13.634;2023-01-29T09:23:07;101418.28;;;10.37;56.48
25156;BME280;21913;52.456;13.634;2023-01-29T09:28:09;101416.56;;;10.36;56.58
25156;BME280;21913;52.456;13.634;2023-01-29T09:33:11;101395.00;;;10.37;56.45
25156;BME280;21913;52.456;13.634;2023-01-29T09:38:13;101396.72;;;10.36;56.55
25156;BME280;21913;52.456;13.634;2023-01-29T09:43:21;101388.97;;;10.36;56.56
25156;BME280;21913;52.456;13.634;2023-01-29T09:48:28;101401.91;;;10.36;56.55
25156;BME280;21913;52.456;13.634;2023-01-29T09:53:56;101413.13;;;10.37;56.48
25156;BME280;21913;52.456;13.634;2023-01-29T09:59:00;101419.13;;;10.36;56.55
25156;BME280;21913;52.456;13.634;2023-01-29T10:04:19;101422.59;;;10.36;56.47
25156;BME280;21913;52.456;13.634;2023-01-29T10:10:06;101406.22;;;10.36;56.57
25156;BME280;21913;52.456;13.634;2023-01-29T10:26:01;101392.41;;;10.35;56.49
25156;BME280;21913;52.456;13.634;2023-01-29T10:31:07;101386.38;;;10.36;56.52
25156;BME280;21913;52.456;13.634;2023-01-29T10:36:18;101382.06;;;10.37;56.63
25156;BME280;21913;52.456;13.634;2023-01-29T10:41:46;101372.56;;;10.36;56.59
25156;BME280;21913;52.456;13.634;2023-01-29T10:47:24;101363.09;;;10.36;56.68
25156;BME280;21913;52.456;13.634;2023-01-29T11:03:12;101338.09;;;10.37;56.46
25156;BME280;21913;52.456;13.634;2023-01-29T11:08:36;101330.31;;;10.35;56.64
25156;BME280;21913;52.456;13.634;2023-01-29T11:13:46;101312.34;;;10.05;52.64
25156;BME280;21913;52.456;13.634;2023-01-29T11:18:50;101309.69;;;9.63;50.46
25156;BME280;21913;52.456;13.634;2023-01-29T11:24:10;101298.72;;;9.38;48.63
25156;BME280;21913;52.456;13.634;2023-01-29T11:29:42;101288.84;;;9.22;49.15
25156;BME280;21913;52.456;13.634;2023-01-29T11:50:25;101258.41;;;9.45;49.32
25156;BME280;21913;52.456;13.634;2023-01-29T11:55:32;101254.56;;;9.64;49.67
25156;BME280;21913;52.456;13.634;2023-01-29T12:00:51;101256.56;;;9.77;49.96
25156;BME280;21913;52.456;13.634;2023-01-29T12:06:06;101244.75;;;9.87;50.24
25156;BME280;21913;52.456;13.634;2023-01-29T12:16:40;101224.28;;;9.97;50.99
25156;BME280;21913;52.456;13.634;2023-01-29T12:21:59;101209.72;;;10.01;51.17
25156;BME280;21913;52.456;13.634;2023-01-29T12:38:36;101177.09;;;10.08;51.86
25156;BME280;21913;52.456;13.634;2023-01-29T12:43:17;101161.59;;;10.09;52.08
25156;BME280;21913;52.456;13.634;2023-01-29T12:48:40;101147.88;;;10.12;52.23
25156;BME280;21913;52.456;13.634;2023-01-29T12:53:47;101160.81;;;10.12;52.46
25156;BME280;21913;52.456;13.634;2023-01-29T12:58:52;101154.78;;;10.13;52.57
25156;BME280;21913;52.456;13.634;2023-01-29T13:04:02;101151.38;;;10.15;52.70
25156;BME280;21913;52.456;13.634;2023-01-29T13:09:10;101142.75;;;10.15;52.88
25156;BME280;21913;52.456;13.634;2023-01-29T13:14:19;101135.00;;;10.16;52.81
25156;BME280;21913;52.456;13.634;2023-01-29T13:19:37;101135.91;;;10.17;53.05
25156;BME280;21913;52.456;13.634;2023-01-29T13:24:41;101129.91;;;10.18;53.00
25156;BME280;21913;52.456;13.634;2023-01-29T13:29:48;101127.31;;;10.18;53.19
25156;BME280;21913;52.456;13.634;2023-01-29T13:34:51;101123.88;;;10.19;53.30
25156;BME280;21913;52.456;13.634;2023-01-29T13:39:56;101120.41;;;10.18;53.31
25156;BME280;21913;52.456;13.634;2023-01-29T13:45:02;101116.13;;;10.19;53.48
25156;BME280;21913;52.456;13.634;2023-01-29T13:50:17;101110.09;;;10.20;53.48
25156;BME280;21913;52.456;13.634;2023-01-29T13:55:31;101104.91;;;10.18;53.37
25156;BME280;21913;52.456;13.634;2023-01-29T14:05:43;101105.75;;;10.17;52.84
25156;BME280;21913;52.456;13.634;2023-01-29T14:36:43;101085.06;;;10.19;53.53
25156;BME280;21913;52.456;13.634;2023-01-29T14:41:46;101088.53;;;10.19;53.53
25156;BME280;21913;52.456;13.634;2023-01-29T14:46:48;101089.41;;;10.20;53.69
25156;BME280;21913;52.456;13.634;2023-01-29T14:51:49;101076.47;;;10.20;53.73
25156;BME280;21913;52.456;13.634;2023-01-29T14:57:02;101075.59;;;10.19;53.93
25156;BME280;21913;52.456;13.634;2023-01-29T15:02:19;101070.44;;;10.21;53.83
25156;BME280;21913;52.456;13.634;2023-01-29T15:07:38;101058.38;;;10.20;54.07
25156;BME280;21913;52.456;13.634;2023-01-29T15:13:06;101059.22;;;10.20;53.93
25156;BME280;21913;52.456;13.634;2023-01-29T15:18:41;101048.03;;;10.20;54.15
25156;BME280;21913;52.456;13.634;2023-01-29T15:23:43;101045.44;;;10.20;54.13
25156;BME280;21913;52.456;13.634;2023-01-29T15:28:53;101045.44;;;10.21;54.30
25156;BME280;21913;52.456;13.634;2023-01-29T15:34:05;101044.59;;;10.21;54.22
25156;BME280;21913;52.456;13.634;2023-01-29T15:44:17;101039.41;;;10.21;54.41
25156;BME280;21913;52.456;13.634;2023-01-29T15:49:46;101034.25;;;10.21;54.43
25156;BME280;21913;52.456;13.634;2023-01-29T15:54:47;101029.94;;;10.21;54.56
25156;BME280;21913;52.456;13.634;2023-01-29T15:59:51;101029.06;;;10.21;54.50
25156;BME280;21913;52.456;13.634;2023-01-29T16:04:54;101021.31;;;10.21;54.60
25156;BME280;21913;52.456;13.634;2023-01-29T16:09:56;101007.50;;;10.20;54.68
25156;BME280;21913;52.456;13.634;2023-01-29T16:15:01;101010.13;;;10.22;54.74
25156;BME280;21913;52.456;13.634;2023-01-29T16:20:06;100997.19;;;10.22;54.56
25156;BME280;21913;52.456;13.634;2023-01-29T16:25:12;100989.41;;;10.22;54.64
25156;BME280;21913;52.456;13.634;2023-01-29T16:30:16;100982.50;;;10.21;54.69
25156;BME280;21913;52.456;13.634;2023-01-29T16:35:18;100981.66;;;10.22;54.86
25156;BME280;21913;52.456;13.634;2023-01-29T16:40:32;100966.13;;;10.20;54.68
25156;BME280;21913;52.456;13.634;2023-01-29T16:45:34;100956.66;;;10.21;54.72
25156;BME280;21913;52.456;13.634;2023-01-29T16:50:37;100958.38;;;10.22;54.89
25156;BME280;21913;52.456;13.634;2023-01-29T16:56:01;100953.22;;;10.22;54.76
25156;BME280;21913;52.456;13.634;2023-01-29T17:01:08;100954.13;;;10.22;54.86
25156;BME280;21913;52.456;13.634;2023-01-29T17:06:20;100931.66;;;10.21;54.92
25156;BME280;21913;52.456;13.634;2023-01-29T17:11:29;100940.28;;;10.22;54.97
25156;BME280;21913;52.456;13.634;2023-01-29T17:16:48;100944.63;;;10.23;54.96
25156;BME280;21913;52.456;13.634;2023-01-29T17:21:50;100942.88;;;10.22;55.05
25156;BME280;21913;52.456;13.634;2023-01-29T17:26:52;100937.78;;;10.23;54.93
25156;BME280;21913;52.456;13.634;2023-01-29T17:31:54;100932.53;;;10.22;54.98
25156;BME280;21913;52.456;13.634;2023-01-29T17:36:56;100936.88;;;10.23;55.04
25156;BME280;21913;52.456;13.634;2023-01-29T17:41:58;100937.69;;;10.22;55.11
25156;BME280;21913;52.456;13.634;2023-01-29T17:46:59;100928.25;;;10.22;55.09
25156;BME280;21913;52.456;13.634;2023-01-29T17:52:01;100920.44;;;10.21;55.11
25156;BME280;21913;52.456;13.634;2023-01-29T17:57:03;100924.75;;;10.22;55.17
25156;BME280;21913;52.456;13.634;2023-01-29T18:02:04;100915.16;;;10.12;54.18
25156;BME280;21913;52.456;13.634;2023-01-29T18:07:08;100903.03;;;10.09;53.61
25156;BME280;21913;52.456;13.634;2023-01-29T18:12:10;100897.06;;;10.12;53.78
25156;BME280;21913;52.456;13.634;2023-01-29T18:17:12;100891.03;;;10.14;53.86
25156;BME280;21913;52.456;13.634;2023-01-29T18:22:14;100877.31;;;10.17;54.03
25156;BME280;21913;52.456;13.634;2023-01-29T18:27:16;100863.53;;;10.18;53.99
25156;BME280;21913;52.456;13.634;2023-01-29T18:32:17;100858.38;;;10.19;54.08
25156;BME280;21913;52.456;13.634;2023-01-29T18:37:19;100844.56;;;10.19;54.31
25156;BME280;21913;52.456;13.634;2023-01-29T18:42:21;100822.16;;;10.19;54.35
25156;BME280;21913;52.456;13.634;2023-01-29T18:47:22;100804.91;;;10.20;54.48
25156;BME280;21913;52.456;13.634;2023-01-29T18:52:24;100808.38;;;10.20;54.45
25156;BME280;21913;52.456;13.634;2023-01-29T18:57:26;100803.19;;;10.20;54.59
25156;BME280;21913;52.456;13.634;2023-01-29T19:02:28;100795.44;;;10.20;54.68
25156;BME280;21913;52.456;13.634;2023-01-29T19:07:29;100810.97;;;10.20;54.62
25156;BME280;21913;52.456;13.634;2023-01-29T19:12:32;100801.47;;;10.21;54.62
25156;BME280;21913;52.456;13.634;2023-01-29T19:17:34;100795.44;;;10.22;54.87
25156;BME280;21913;52.456;13.634;2023-01-29T19:22:35;100798.91;;;10.21;54.91
25156;BME280;21913;52.456;13.634;2023-01-29T19:27:37;100785.09;;;10.22;54.93
25156;BME280;21913;52.456;13.634;2023-01-29T19:32:39;100772.19;;;10.22;55.02
25156;BME280;21913;52.456;13.634;2023-01-29T19:37:41;100750.63;;;10.21;54.91
25156;BME280;21913;52.456;13.634;2023-01-29T19:42:43;100759.25;;;10.22;55.03
25156;BME280;21913;52.456;13.634;2023-01-29T19:47:44;100761.84;;;10.22;55.05
25156;BME280;21913;52.456;13.634;2023-01-29T19:52:46;100743.72;;;10.20;55.11
25156;BME280;21913;52.456;13.634;2023-01-29T19:57:53;100743.72;;;10.22;55.19
25156;BME280;21913;52.456;13.634;2023-01-29T20:02:55;100720.44;;;10.22;55.19
25156;BME280;21913;52.456;13.634;2023-01-29T20:07:56;100723.03;;;10.22;55.29
25156;BME280;21913;52.456;13.634;2023-01-29T20:12:58;100702.34;;;10.22;55.43
25156;BME280;21913;52.456;13.634;2023-01-29T20:17:59;100696.31;;;10.21;55.36
25156;BME280;21913;52.456;13.634;2023-01-29T20:23:01;100686.84;;;10.22;55.45
25156;BME280;21913;52.456;13.634;2023-01-29T20:28:04;100673.03;;;10.21;55.31
25156;BME280;21913;52.456;13.634;2023-01-29T20:33:07;100646.34;;;10.22;55.41
25156;BME280;21913;52.456;13.634;2023-01-29T20:38:08;100635.13;;;10.22;55.37
25156;BME280;21913;52.456;13.634;2023-01-29T20:43:10;100647.19;;;10.21;55.63
25156;BME280;21913;52.456;13.634;2023-01-29T20:48:12;100632.53;;;10.22;55.37
25156;BME280;21913;52.456;13.634;2023-01-29T20:53:13;100624.78;;;10.22;55.46
25156;BME280;21913;52.456;13.634;2023-01-29T20:58:15;100619.66;;;10.23;55.54
25156;BME280;21913;52.456;13.634;2023-01-29T21:03:17;100609.25;;;10.22;55.57
25156;BME280;21913;52.456;13.634;2023-01-29T21:08:19;100623.94;;;10.23;55.58
25156;BME280;21913;52.456;13.634;2023-01-29T21:13:20;100614.41;;;10.22;55.59
25156;BME280;21913;52.456;13.634;2023-01-29T21:18:22;100609.31;;;10.23;55.66
25156;BME280;21913;52.456;13.634;2023-01-29T21:23:24;100595.44;;;10.21;55.62
25156;BME280;21913;52.456;13.634;2023-01-29T21:28:25;100588.63;;;10.23;55.68
25156;BME280;21913;52.456;13.634;2023-01-29T21:33:27;100566.19;;;10.22;55.71
25156;BME280;21913;52.456;13.634;2023-01-29T21:38:28;100563.59;;;10.22;55.73
25156;BME280;21913;52.456;13.634;2023-01-29T21:43:30;100606.75;;;10.23;55.84
25156;BME280;21913;52.456;13.634;2023-01-29T21:48:32;100605.00;;;10.24;55.88
25156;BME280;21913;52.456;13.634;2023-01-29T21:53:35;100617.09;;;10.23;55.85
25156;BME280;21913;52.456;13.634;2023-01-29T21:58:41;100605.00;;;10.24;55.83
25156;BME280;21913;52.456;13.634;2023-01-29T22:03:42;100617.09;;;10.23;55.83
25156;BME280;21913;52.456;13.634;2023-01-29T22:08:48;100583.47;;;10.23;56.04
25156;BME280;21913;52.456;13.634;2023-01-29T22:13:50;100591.16;;;10.22;55.81
25156;BME280;21913;52.456;13.634;2023-01-29T22:18:52;100608.44;;;10.23;55.96
25156;BME280;21913;52.456;13.634;2023-01-29T22:23:53;100599.81;;;10.22;55.93
25156;BME280;21913;52.456;13.634;2023-01-29T22:28:55;100602.44;;;10.24;56.05
25156;BME280;21913;52.456;13.634;2023-01-29T22:33:57;100595.50;;;10.23;55.95
25156;BME280;21913;52.456;13.634;2023-01-29T22:38:58;100580.81;;;10.22;55.89
25156;BME280;21913;52.456;13.634;2023-01-29T22:44:00;100581.69;;;10.22;56.09
25156;BME280;21913;52.456;13.634;2023-01-29T22:49:02;100562.69;;;10.22;56.01
25156;BME280;21913;52.456;13.634;2023-01-29T22:54:04;100535.16;;;10.22;56.10
25156;BME280;21913;52.456;13.634;2023-01-29T22:59:05;100529.09;;;10.22;56.07
25156;BME280;21913;52.456;13.634;2023-01-29T23:04:07;100513.56;;;10.22;56.19
25156;BME280;21913;52.456;13.634;2023-01-29T23:09:08;100489.47;;;10.23;56.01
25156;BME280;21913;52.456;13.634;2023-01-29T23:14:10;100454.16;;;10.23;56.07
25156;BME280;21913;52.456;13.634;2023-01-29T23:19:12;100398.09;;;10.22;56.17
25156;BME280;21913;52.456;13.634;2023-01-29T23:24:13;100355.88;;;10.23;56.09
25156;BME280;21913;52.456;13.634;2023-01-29T23:29:15;100376.56;;;10.23;56.22
25156;BME280;21913;52.456;13.634;2023-01-29T23:34:16;100431.72;;;10.22;56.28
25156;BME280;21913;52.456;13.634;2023-01-29T23:39:18;100436.91;;;10.24;56.32
25156;BME280;21913;52.456;13.634;2023-01-29T23:44:20;100405.03;;;10.23;56.30
25156;BME280;21913;52.456;13.634;2023-01-29T23:49:22;100374.00;;;10.23;56.34
25156;BME280;21913;52.456;13.634;2023-01-29T23:54:23;100391.22;;;10.24;56.36
25156;BME280;21913;52.456;13.634;2023-01-29T23:59:28;100372.28;;;10.24;56.41
